Weather at Estancia Villa María

Public forecast

Using degrees Celsius for public forecast. Weather courtesy of forecast.io.

Closest aviation weather report (METAR) to Estancia Villa María

Closest report is San Fernando Airport, 28.9 nm (53.6 km) ENE.

2024/05/28 01:20 (retrieved 24 minutes ago)

SADF 280120Z 20012KT 9999 OVC017 09/07 Q1026

Closest aviation forecast (TAF) to Estancia Villa María

Forecast is more than 6 hours old.

Closest forecast is Rubem Berta Airport, 310.5 nm (575.1 km) NNE.

2024/05/27 18:00 (retrieved 8 hours ago)

TAF SBUG 271500Z 2718/2806 21012KT 9999 BKN010 TX10/2718Z TN07/2806Z BECMG 2719/2721 SCT015 BECMG 2802/2804 BKN008 RMK PDW